sensor_id;sensor_type;location;lat;lon;timestamp;temperature;humidity
54788;DHT22;59598;48.112;16.280;2022-09-09T00:02:28;14.10;99.90
54788;DHT22;59598;48.112;16.280;2022-09-09T00:05:18;14.10;99.90
54788;DHT22;59598;48.112;16.280;2022-09-09T00:08:00;14.10;99.90
54788;DHT22;59598;48.112;16.280;2022-09-09T00:10:43;14.20;99.90
54788;DHT22;59598;48.112;16.280;2022-09-09T00:13:22;14.20;99.90
54788;DHT22;59598;48.112;16.280;2022-09-09T00:16:07;14.20;99.90
54788;DHT22;59598;48.112;16.280;2022-09-09T00:21:31;14.00;99.90
54788;DHT22;59598;48.112;16.280;2022-09-09T00:24:17;13.90;99.90
54788;DHT22;59598;48.112;16.280;2022-09-09T00:27:01;13.80;99.90
54788;DHT22;59598;48.112;16.280;2022-09-09T00:30:13;13.70;99.90
54788;DHT22;59598;48.112;16.280;2022-09-09T00:33:20;13.50;99.90
54788;DHT22;59598;48.112;16.280;2022-09-09T00:35:59;13.40;99.90
54788;DHT22;59598;48.112;16.280;2022-09-09T00:38:36;13.30;99.90
54788;DHT22;59598;48.112;16.280;2022-09-09T00:44:50;13.20;99.90
54788;DHT22;59598;48.112;16.280;2022-09-09T00:50:50;13.10;99.90
54788;DHT22;59598;48.112;16.280;2022-09-09T00:59:47;13.00;99.90
54788;DHT22;59598;48.112;16.280;2022-09-09T01:11:22;12.80;99.90
54788;DHT22;59598;48.112;16.280;2022-09-09T01:14:10;12.80;99.90
54788;DHT22;59598;48.112;16.280;2022-09-09T01:17:01;12.80;99.90
54788;DHT22;59598;48.112;16.280;2022-09-09T01:19:53;12.80;99.90
54788;DHT22;59598;48.112;16.280;2022-09-09T01:26:15;12.80;99.90
54788;DHT22;59598;48.112;16.280;2022-09-09T01:28:52;13.00;99.90
54788;DHT22;59598;48.112;16.280;2022-09-09T01:31:39;13.20;99.90
54788;DHT22;59598;48.112;16.280;2022-09-09T01:34:16;13.50;99.90
54788;DHT22;59598;48.112;16.280;2022-09-09T01:37:03;13.80;99.90
54788;DHT22;59598;48.112;16.280;2022-09-09T01:39:42;13.90;99.90
54788;DHT22;59598;48.112;16.280;2022-09-09T01:42:16;14.00;99.90
54788;DHT22;59598;48.112;16.280;2022-09-09T01:44:50;14.00;99.90
54788;DHT22;59598;48.112;16.280;2022-09-09T01:47:25;14.00;99.90
54788;DHT22;59598;48.112;16.280;2022-09-09T01:49:59;13.80;99.90
54788;DHT22;59598;48.112;16.280;2022-09-09T01:52:36;13.70;99.90
54788;DHT22;59598;48.112;16.280;2022-09-09T01:55:13;13.50;99.90
54788;DHT22;59598;48.112;16.280;2022-09-09T01:58:17;13.40;99.90
54788;DHT22;59598;48.112;16.280;2022-09-09T02:01:15;13.20;99.90
54788;DHT22;59598;48.112;16.280;2022-09-09T02:03:56;13.20;99.90
54788;DHT22;59598;48.112;16.280;2022-09-09T02:06:35;13.10;99.90
54788;DHT22;59598;48.112;16.280;2022-09-09T02:09:13;13.10;99.90
54788;DHT22;59598;48.112;16.280;2022-09-09T02:12:00;13.00;99.90
54788;DHT22;59598;48.112;16.280;2022-09-09T02:14:41;12.90;99.90
54788;DHT22;59598;48.112;16.280;2022-09-09T02:17:28;13.00;99.90
54788;DHT22;59598;48.112;16.280;2022-09-09T02:20:13;12.90;99.90
54788;DHT22;59598;48.112;16.280;2022-09-09T02:22:49;12.90;99.90
54788;DHT22;59598;48.112;16.280;2022-09-09T02:25:26;12.80;99.90
54788;DHT22;59598;48.112;16.280;2022-09-09T02:28:01;12.70;99.90
54788;DHT22;59598;48.112;16.280;2022-09-09T02:30:38;12.70;99.90
54788;DHT22;59598;48.112;16.280;2022-09-09T02:33:15;12.60;99.90
54788;DHT22;59598;48.112;16.280;2022-09-09T02:35:51;12.70;99.90
54788;DHT22;59598;48.112;16.280;2022-09-09T02:38:26;12.80;99.90
54788;DHT22;59598;48.112;16.280;2022-09-09T02:41:00;12.80;99.90
54788;DHT22;59598;48.112;16.280;2022-09-09T02:43:34;12.80;99.90
54788;DHT22;59598;48.112;16.280;2022-09-09T02:48:59;12.70;99.90
54788;DHT22;59598;48.112;16.280;2022-09-09T02:54:30;12.70;99.90
54788;DHT22;59598;48.112;16.280;2022-09-09T02:57:24;12.80;99.90
54788;DHT22;59598;48.112;16.280;2022-09-09T03:00:05;12.80;99.90
54788;DHT22;59598;48.112;16.280;2022-09-09T03:02:43;12.70;99.90
54788;DHT22;59598;48.112;16.280;2022-09-09T03:05:19;12.70;99.90
54788;DHT22;59598;48.112;16.280;2022-09-09T03:07:56;12.80;99.90
54788;DHT22;59598;48.112;16.280;2022-09-09T03:10:32;12.70;99.90
54788;DHT22;59598;48.112;16.280;2022-09-09T03:13:06;12.70;99.90
54788;DHT22;59598;48.112;16.280;2022-09-09T03:15:43;12.80;99.90
54788;DHT22;59598;48.112;16.280;2022-09-09T03:18:14;12.80;99.90
54788;DHT22;59598;48.112;16.280;2022-09-09T03:20:48;12.80;99.90
54788;DHT22;59598;48.112;16.280;2022-09-09T03:23:25;12.70;99.90
54788;DHT22;59598;48.112;16.280;2022-09-09T03:26:02;12.70;99.90
54788;DHT22;59598;48.112;16.280;2022-09-09T03:28:34;12.90;99.90
54788;DHT22;59598;48.112;16.280;2022-09-09T03:31:10;12.90;99.90
54788;DHT22;59598;48.112;16.280;2022-09-09T03:33:44;13.00;99.90
54788;DHT22;59598;48.112;16.280;2022-09-09T03:36:18;13.00;99.90
54788;DHT22;59598;48.112;16.280;2022-09-09T03:38:50;12.90;99.90
54788;DHT22;59598;48.112;16.280;2022-09-09T03:41:24;12.80;99.90
54788;DHT22;59598;48.112;16.280;2022-09-09T03:44:04;12.80;99.90
54788;DHT22;59598;48.112;16.280;2022-09-09T03:46:38;12.70;99.90
54788;DHT22;59598;48.112;16.280;2022-09-09T03:49:17;12.70;99.90
54788;DHT22;59598;48.112;16.280;2022-09-09T03:51:53;12.60;99.90
54788;DHT22;59598;48.112;16.280;2022-09-09T03:54:25;12.60;99.90
54788;DHT22;59598;48.112;16.280;2022-09-09T03:56:59;12.50;99.90
54788;DHT22;59598;48.112;16.280;2022-09-09T03:59:33;12.40;99.90
54788;DHT22;59598;48.112;16.280;2022-09-09T04:02:12;12.40;99.90
54788;DHT22;59598;48.112;16.280;2022-09-09T04:04:46;12.40;99.90
54788;DHT22;59598;48.112;16.280;2022-09-09T04:07:19;12.40;99.90
54788;DHT22;59598;48.112;16.280;2022-09-09T04:09:51;12.40;99.90
54788;DHT22;59598;48.112;16.280;2022-09-09T04:12:25;12.50;99.90
54788;DHT22;59598;48.112;16.280;2022-09-09T04:14:59;12.50;99.90
54788;DHT22;59598;48.112;16.280;2022-09-09T04:17:41;12.40;99.90
54788;DHT22;59598;48.112;16.280;2022-09-09T04:20:18;12.40;99.90
54788;DHT22;59598;48.112;16.280;2022-09-09T04:22:50;12.30;99.90
54788;DHT22;59598;48.112;16.280;2022-09-09T04:25:27;12.20;99.90
54788;DHT22;59598;48.112;16.280;2022-09-09T04:27:58;12.20;99.90
54788;DHT22;59598;48.112;16.280;2022-09-09T04:30:34;12.20;99.90
54788;DHT22;59598;48.112;16.280;2022-09-09T04:33:07;12.20;99.90
54788;DHT22;59598;48.112;16.280;2022-09-09T04:35:39;12.20;99.90
54788;DHT22;59598;48.112;16.280;2022-09-09T04:38:17;12.20;99.90
54788;DHT22;59598;48.112;16.280;2022-09-09T04:40:53;12.20;99.90
54788;DHT22;59598;48.112;16.280;2022-09-09T04:43:25;12.30;99.90
54788;DHT22;59598;48.112;16.280;2022-09-09T04:46:01;12.30;99.90
54788;DHT22;59598;48.112;16.280;2022-09-09T04:48:33;12.40;99.90
54788;DHT22;59598;48.112;16.280;2022-09-09T04:51:11;12.40;99.90
54788;DHT22;59598;48.112;16.280;2022-09-09T04:53:50;12.40;99.90
54788;DHT22;59598;48.112;16.280;2022-09-09T04:56:25;12.50;99.90
54788;DHT22;59598;48.112;16.280;2022-09-09T04:58:59;12.60;99.90
54788;DHT22;59598;48.112;16.280;2022-09-09T05:01:33;12.60;99.90
54788;DHT22;59598;48.112;16.280;2022-09-09T05:04:05;12.70;99.90
54788;DHT22;59598;48.112;16.280;2022-09-09T05:06:36;12.80;99.90
54788;DHT22;59598;48.112;16.280;2022-09-09T05:09:13;12.80;99.90
54788;DHT22;59598;48.112;16.280;2022-09-09T05:11:47;12.80;99.90
54788;DHT22;59598;48.112;16.280;2022-09-09T05:14:19;12.80;99.90
54788;DHT22;59598;48.112;16.280;2022-09-09T05:16:50;12.80;99.90
54788;DHT22;59598;48.112;16.280;2022-09-09T05:19:26;12.90;99.90
54788;DHT22;59598;48.112;16.280;2022-09-09T05:21:58;13.00;99.90
54788;DHT22;59598;48.112;16.280;2022-09-09T05:24:29;13.10;99.90
54788;DHT22;59598;48.112;16.280;2022-09-09T05:27:06;13.30;99.90
54788;DHT22;59598;48.112;16.280;2022-09-09T05:29:45;13.30;99.90
54788;DHT22;59598;48.112;16.280;2022-09-09T05:32:19;13.40;99.90
54788;DHT22;59598;48.112;16.280;2022-09-09T05:34:51;13.50;99.90
54788;DHT22;59598;48.112;16.280;2022-09-09T05:37:27;13.60;99.90
54788;DHT22;59598;48.112;16.280;2022-09-09T05:39:59;13.70;99.90
54788;DHT22;59598;48.112;16.280;2022-09-09T05:42:31;13.80;99.90
54788;DHT22;59598;48.112;16.280;2022-09-09T05:45:09;13.90;99.90
54788;DHT22;59598;48.112;16.280;2022-09-09T05:47:40;14.00;99.90
54788;DHT22;59598;48.112;16.280;2022-09-09T05:50:14;14.10;99.90
54788;DHT22;59598;48.112;16.280;2022-09-09T05:52:49;14.30;99.90
54788;DHT22;59598;48.112;16.280;2022-09-09T05:55:23;14.40;99.90
54788;DHT22;59598;48.112;16.280;2022-09-09T05:57:56;14.50;99.90
54788;DHT22;59598;48.112;16.280;2022-09-09T06:00:30;14.70;99.90
54788;DHT22;59598;48.112;16.280;2022-09-09T06:03:03;14.90;99.90
54788;DHT22;59598;48.112;16.280;2022-09-09T06:05:36;15.10;99.90
54788;DHT22;59598;48.112;16.280;2022-09-09T06:08:13;15.30;99.90
54788;DHT22;59598;48.112;16.280;2022-09-09T06:10:45;15.50;99.90
54788;DHT22;59598;48.112;16.280;2022-09-09T06:13:16;15.80;99.90
54788;DHT22;59598;48.112;16.280;2022-09-09T06:15:52;16.00;99.90
54788;DHT22;59598;48.112;16.280;2022-09-09T06:18:26;16.30;99.90
54788;DHT22;59598;48.112;16.280;2022-09-09T06:21:05;16.30;99.90
54788;DHT22;59598;48.112;16.280;2022-09-09T06:23:40;16.40;99.90
54788;DHT22;59598;48.112;16.280;2022-09-09T06:26:18;16.70;99.90
54788;DHT22;59598;48.112;16.280;2022-09-09T06:28:53;16.90;99.90
54788;DHT22;59598;48.112;16.280;2022-09-09T06:31:27;17.10;99.90
54788;DHT22;59598;48.112;16.280;2022-09-09T06:34:06;17.10;99.90
54788;DHT22;59598;48.112;16.280;2022-09-09T06:36:41;17.10;99.90
54788;DHT22;59598;48.112;16.280;2022-09-09T06:39:13;17.00;99.90
54788;DHT22;59598;48.112;16.280;2022-09-09T06:41:46;17.30;99.90
54788;DHT22;59598;48.112;16.280;2022-09-09T06:44:18;17.50;99.90
54788;DHT22;59598;48.112;16.280;2022-09-09T06:46:50;17.70;99.90
54788;DHT22;59598;48.112;16.280;2022-09-09T06:49:24;17.90;99.90
54788;DHT22;59598;48.112;16.280;2022-09-09T06:51:58;18.00;99.90
54788;DHT22;59598;48.112;16.280;2022-09-09T06:54:29;17.90;99.90
54788;DHT22;59598;48.112;16.280;2022-09-09T06:57:01;18.00;99.90
54788;DHT22;59598;48.112;16.280;2022-09-09T06:59:38;18.30;99.90
54788;DHT22;59598;48.112;16.280;2022-09-09T07:02:11;18.40;99.90
54788;DHT22;59598;48.112;16.280;2022-09-09T07:04:43;18.50;99.90
54788;DHT22;59598;48.112;16.280;2022-09-09T07:07:17;18.80;99.90
54788;DHT22;59598;48.112;16.280;2022-09-09T07:09:50;18.90;99.90
54788;DHT22;59598;48.112;16.280;2022-09-09T07:12:27;18.70;99.90
54788;DHT22;59598;48.112;16.280;2022-09-09T07:15:01;18.60;99.90
54788;DHT22;59598;48.112;16.280;2022-09-09T07:17:35;18.90;99.90
54788;DHT22;59598;48.112;16.280;2022-09-09T07:20:11;18.90;99.90
54788;DHT22;59598;48.112;16.280;2022-09-09T07:22:43;19.20;99.90
54788;DHT22;59598;48.112;16.280;2022-09-09T07:25:15;19.70;99.90
54788;DHT22;59598;48.112;16.280;2022-09-09T07:27:48;20.10;99.90
54788;DHT22;59598;48.112;16.280;2022-09-09T07:30:30;20.40;99.90
54788;DHT22;59598;48.112;16.280;2022-09-09T07:33:01;20.10;99.90
54788;DHT22;59598;48.112;16.280;2022-09-09T07:35:36;20.30;99.90
54788;DHT22;59598;48.112;16.280;2022-09-09T07:38:11;20.60;99.90
54788;DHT22;59598;48.112;16.280;2022-09-09T07:40:43;20.70;99.90
54788;DHT22;59598;48.112;16.280;2022-09-09T07:43:14;20.90;99.90
54788;DHT22;59598;48.112;16.280;2022-09-09T07:45:57;21.20;99.90
54788;DHT22;59598;48.112;16.280;2022-09-09T07:48:32;21.40;99.90
54788;DHT22;59598;48.112;16.280;2022-09-09T07:51:08;21.60;99.90
54788;DHT22;59598;48.112;16.280;2022-09-09T07:53:41;21.70;99.90
54788;DHT22;59598;48.112;16.280;2022-09-09T07:56:18;21.80;99.90
54788;DHT22;59598;48.112;16.280;2022-09-09T07:58:54;22.00;99.90
54788;DHT22;59598;48.112;16.280;2022-09-09T08:01:31;21.90;99.90
54788;DHT22;59598;48.112;16.280;2022-09-09T08:04:14;22.30;99.90
54788;DHT22;59598;48.112;16.280;2022-09-09T08:06:52;22.70;99.90
54788;DHT22;59598;48.112;16.280;2022-09-09T08:09:26;23.20;99.90
54788;DHT22;59598;48.112;16.280;2022-09-09T08:11:59;23.20;99.90
54788;DHT22;59598;48.112;16.280;2022-09-09T08:14:34;23.30;99.90
54788;DHT22;59598;48.112;16.280;2022-09-09T08:17:13;23.70;99.90
54788;DHT22;59598;48.112;16.280;2022-09-09T08:19:47;24.00;99.90
54788;DHT22;59598;48.112;16.280;2022-09-09T08:22:18;24.10;99.90
54788;DHT22;59598;48.112;16.280;2022-09-09T08:24:52;23.90;99.90
54788;DHT22;59598;48.112;16.280;2022-09-09T08:27:24;24.20;99.90
54788;DHT22;59598;48.112;16.280;2022-09-09T08:29:56;24.40;99.90
54788;DHT22;59598;48.112;16.280;2022-09-09T08:32:27;24.50;99.90
54788;DHT22;59598;48.112;16.280;2022-09-09T08:34:59;24.50;99.90
54788;DHT22;59598;48.112;16.280;2022-09-09T08:37:30;24.50;99.90
54788;DHT22;59598;48.112;16.280;2022-09-09T08:40:03;23.90;99.90
54788;DHT22;59598;48.112;16.280;2022-09-09T08:42:46;24.00;99.90
54788;DHT22;59598;48.112;16.280;2022-09-09T08:45:45;24.50;99.90
54788;DHT22;59598;48.112;16.280;2022-09-09T08:49:02;25.30;99.90
54788;DHT22;59598;48.112;16.280;2022-09-09T08:51:53;25.80;99.90
54788;DHT22;59598;48.112;16.280;2022-09-09T08:54:32;25.90;99.90
54788;DHT22;59598;48.112;16.280;2022-09-09T08:57:14;26.00;99.90
54788;DHT22;59598;48.112;16.280;2022-09-09T08:59:51;26.30;99.90
54788;DHT22;59598;48.112;16.280;2022-09-09T09:08:59;27.70;99.90
54788;DHT22;59598;48.112;16.280;2022-09-09T09:11:38;27.70;99.90
54788;DHT22;59598;48.112;16.280;2022-09-09T09:14:24;27.40;99.90
54788;DHT22;59598;48.112;16.280;2022-09-09T09:17:14;27.30;99.90
54788;DHT22;59598;48.112;16.280;2022-09-09T09:19:51;27.00;99.90
54788;DHT22;59598;48.112;16.280;2022-09-09T09:25:55;27.10;99.90
54788;DHT22;59598;48.112;16.280;2022-09-09T09:31:04;26.90;99.90
54788;DHT22;59598;48.112;16.280;2022-09-09T09:33:53;27.10;99.90
54788;DHT22;59598;48.112;16.280;2022-09-09T09:36:37;27.50;99.90
54788;DHT22;59598;48.112;16.280;2022-09-09T09:39:28;27.40;99.90
54788;DHT22;59598;48.112;16.280;2022-09-09T09:42:12;27.30;99.90
54788;DHT22;59598;48.112;16.280;2022-09-09T09:44:47;27.40;99.90
54788;DHT22;59598;48.112;16.280;2022-09-09T09:47:22;27.10;99.90
54788;DHT22;59598;48.112;16.280;2022-09-09T09:50:00;27.50;99.90
54788;DHT22;59598;48.112;16.280;2022-09-09T09:52:33;27.70;99.90
54788;DHT22;59598;48.112;16.280;2022-09-09T09:55:13;27.70;99.90
54788;DHT22;59598;48.112;16.280;2022-09-09T09:57:45;28.30;99.90
54788;DHT22;59598;48.112;16.280;2022-09-09T10:00:20;28.30;99.90
54788;DHT22;59598;48.112;16.280;2022-09-09T10:02:53;28.40;99.90
54788;DHT22;59598;48.112;16.280;2022-09-09T10:05:29;28.60;99.90
54788;DHT22;59598;48.112;16.280;2022-09-09T10:08:03;28.60;99.90
54788;DHT22;59598;48.112;16.280;2022-09-09T10:14:15;28.80;99.90
54788;DHT22;59598;48.112;16.280;2022-09-09T10:35:28;29.70;99.90
54788;DHT22;59598;48.112;16.280;2022-09-09T10:38:16;30.10;99.90
54788;DHT22;59598;48.112;16.280;2022-09-09T10:41:00;30.50;99.90
54788;DHT22;59598;48.112;16.280;2022-09-09T10:56:08;31.30;99.90
54788;DHT22;59598;48.112;16.280;2022-09-09T10:58:53;31.10;99.90
54788;DHT22;59598;48.112;16.280;2022-09-09T11:01:39;31.30;99.90
54788;DHT22;59598;48.112;16.280;2022-09-09T11:04:29;31.20;99.90
54788;DHT22;59598;48.112;16.280;2022-09-09T11:21:49;29.90;99.90
54788;DHT22;59598;48.112;16.280;2022-09-09T11:24:37;30.00;99.90
54788;DHT22;59598;48.112;16.280;2022-09-09T11:33:04;29.70;99.90
54788;DHT22;59598;48.112;16.280;2022-09-09T11:36:16;29.90;99.90
54788;DHT22;59598;48.112;16.280;2022-09-09T11:39:37;30.30;99.90
54788;DHT22;59598;48.112;16.280;2022-09-09T11:44:44;29.60;99.90
54788;DHT22;59598;48.112;16.280;2022-09-09T11:50:29;31.00;99.90
54788;DHT22;59598;48.112;16.280;2022-09-09T11:55:47;32.00;99.90
54788;DHT22;59598;48.112;16.280;2022-09-09T11:58:57;31.10;99.90
54788;DHT22;59598;48.112;16.280;2022-09-09T12:01:34;30.70;99.90
54788;DHT22;59598;48.112;16.280;2022-09-09T12:04:21;30.70;99.90
54788;DHT22;59598;48.112;16.280;2022-09-09T12:07:21;31.60;99.90
54788;DHT22;59598;48.112;16.280;2022-09-09T12:10:27;32.70;99.90
54788;DHT22;59598;48.112;16.280;2022-09-09T12:13:16;33.00;99.90
54788;DHT22;59598;48.112;16.280;2022-09-09T12:15:55;34.10;99.90
54788;DHT22;59598;48.112;16.280;2022-09-09T12:18:39;33.40;99.90
54788;DHT22;59598;48.112;16.280;2022-09-09T12:27:06;31.50;99.90
54788;DHT22;59598;48.112;16.280;2022-09-09T12:30:11;31.10;99.90
54788;DHT22;59598;48.112;16.280;2022-09-09T12:32:44;30.30;99.90
54788;DHT22;59598;48.112;16.280;2022-09-09T12:35:28;29.30;99.90
54788;DHT22;59598;48.112;16.280;2022-09-09T12:38:02;28.90;99.90
54788;DHT22;59598;48.112;16.280;2022-09-09T12:40:40;28.60;99.90
54788;DHT22;59598;48.112;16.280;2022-09-09T12:43:25;28.10;99.90
54788;DHT22;59598;48.112;16.280;2022-09-09T12:46:10;27.90;99.90
54788;DHT22;59598;48.112;16.280;2022-09-09T12:48:57;27.80;99.90
54788;DHT22;59598;48.112;16.280;2022-09-09T12:51:32;27.50;99.90
54788;DHT22;59598;48.112;16.280;2022-09-09T12:54:13;27.40;99.90
54788;DHT22;59598;48.112;16.280;2022-09-09T12:56:48;27.20;99.90
54788;DHT22;59598;48.112;16.280;2022-09-09T12:59:43;27.30;99.90
54788;DHT22;59598;48.112;16.280;2022-09-09T13:04:52;27.20;99.90
54788;DHT22;59598;48.112;16.280;2022-09-09T13:07:26;27.20;99.90
54788;DHT22;59598;48.112;16.280;2022-09-09T13:10:03;26.80;99.90
54788;DHT22;59598;48.112;16.280;2022-09-09T13:12:37;26.60;99.90
54788;DHT22;59598;48.112;16.280;2022-09-09T13:15:15;26.20;99.90
54788;DHT22;59598;48.112;16.280;2022-09-09T13:17:58;26.20;99.90
54788;DHT22;59598;48.112;16.280;2022-09-09T13:20:34;26.00;99.90
54788;DHT22;59598;48.112;16.280;2022-09-09T13:23:05;26.00;99.90
54788;DHT22;59598;48.112;16.280;2022-09-09T13:26:27;25.60;99.90
54788;DHT22;59598;48.112;16.280;2022-09-09T13:29:16;25.70;99.90
54788;DHT22;59598;48.112;16.280;2022-09-09T13:32:17;25.90;99.90
54788;DHT22;59598;48.112;16.280;2022-09-09T13:35:00;25.90;99.90
54788;DHT22;59598;48.112;16.280;2022-09-09T13:37:39;25.60;99.90
54788;DHT22;59598;48.112;16.280;2022-09-09T13:40:20;25.10;99.90
54788;DHT22;59598;48.112;16.280;2022-09-09T13:42:55;24.50;99.90
54788;DHT22;59598;48.112;16.280;2022-09-09T13:45:32;24.20;99.90
54788;DHT22;59598;48.112;16.280;2022-09-09T13:48:10;24.10;99.90
54788;DHT22;59598;48.112;16.280;2022-09-09T13:50:41;24.00;99.90
54788;DHT22;59598;48.112;16.280;2022-09-09T13:53:17;24.00;99.90
54788;DHT22;59598;48.112;16.280;2022-09-09T13:55:50;23.90;99.90
54788;DHT22;59598;48.112;16.280;2022-09-09T13:58:23;23.90;99.90
54788;DHT22;59598;48.112;16.280;2022-09-09T14:00:56;23.80;99.90
54788;DHT22;59598;48.112;16.280;2022-09-09T14:03:32;23.60;99.90
54788;DHT22;59598;48.112;16.280;2022-09-09T14:06:10;23.40;99.90
54788;DHT22;59598;48.112;16.280;2022-09-09T14:08:45;22.90;99.90
54788;DHT22;59598;48.112;16.280;2022-09-09T14:11:19;22.10;99.90
54788;DHT22;59598;48.112;16.280;2022-09-09T14:13:58;21.50;99.90
54788;DHT22;59598;48.112;16.280;2022-09-09T14:16:32;21.30;99.90
54788;DHT22;59598;48.112;16.280;2022-09-09T14:19:05;21.00;99.90
54788;DHT22;59598;48.112;16.280;2022-09-09T14:21:36;20.90;99.90
54788;DHT22;59598;48.112;16.280;2022-09-09T14:24:08;20.80;99.90
54788;DHT22;59598;48.112;16.280;2022-09-09T14:26:42;20.60;99.90
54788;DHT22;59598;48.112;16.280;2022-09-09T14:29:13;20.50;99.90
54788;DHT22;59598;48.112;16.280;2022-09-09T14:31:45;20.40;99.90
54788;DHT22;59598;48.112;16.280;2022-09-09T14:34:19;20.50;99.90
54788;DHT22;59598;48.112;16.280;2022-09-09T14:36:53;20.60;99.90
54788;DHT22;59598;48.112;16.280;2022-09-09T14:39:27;20.60;99.90
54788;DHT22;59598;48.112;16.280;2022-09-09T14:42:02;20.60;99.90
54788;DHT22;59598;48.112;16.280;2022-09-09T14:44:41;20.40;99.90
54788;DHT22;59598;48.112;16.280;2022-09-09T14:47:18;20.50;99.90
54788;DHT22;59598;48.112;16.280;2022-09-09T14:49:53;20.30;99.90
54788;DHT22;59598;48.112;16.280;2022-09-09T14:52:27;20.40;99.90
54788;DHT22;59598;48.112;16.280;2022-09-09T14:55:01;20.30;99.90
54788;DHT22;59598;48.112;16.280;2022-09-09T14:57:41;20.30;99.90
54788;DHT22;59598;48.112;16.280;2022-09-09T15:00:12;20.30;99.90
54788;DHT22;59598;48.112;16.280;2022-09-09T15:02:46;20.30;99.90
54788;DHT22;59598;48.112;16.280;2022-09-09T15:05:26;20.30;99.90
54788;DHT22;59598;48.112;16.280;2022-09-09T15:07:59;20.20;99.90
54788;DHT22;59598;48.112;16.280;2022-09-09T15:10:33;20.20;99.90
54788;DHT22;59598;48.112;16.280;2022-09-09T15:13:04;20.10;99.90
54788;DHT22;59598;48.112;16.280;2022-09-09T15:15:35;20.00;99.90
54788;DHT22;59598;48.112;16.280;2022-09-09T15:18:11;20.10;99.90
54788;DHT22;59598;48.112;16.280;2022-09-09T15:20:46;20.20;99.90
54788;DHT22;59598;48.112;16.280;2022-09-09T15:23:18;20.20;99.90
54788;DHT22;59598;48.112;16.280;2022-09-09T15:26:02;20.10;99.90
54788;DHT22;59598;48.112;16.280;2022-09-09T15:28:37;20.00;99.90
54788;DHT22;59598;48.112;16.280;2022-09-09T15:31:22;19.90;99.90
54788;DHT22;59598;48.112;16.280;2022-09-09T15:34:07;19.80;99.90
54788;DHT22;59598;48.112;16.280;2022-09-09T15:36:40;19.70;99.90
54788;DHT22;59598;48.112;16.280;2022-09-09T15:39:17;19.70;99.90
54788;DHT22;59598;48.112;16.280;2022-09-09T15:41:57;19.70;99.90
54788;DHT22;59598;48.112;16.280;2022-09-09T15:44:28;19.70;99.90
54788;DHT22;59598;48.112;16.280;2022-09-09T15:47:02;19.50;99.90
54788;DHT22;59598;48.112;16.280;2022-09-09T15:49:36;19.30;99.90
54788;DHT22;59598;48.112;16.280;2022-09-09T15:52:09;19.20;99.90
54788;DHT22;59598;48.112;16.280;2022-09-09T15:54:46;19.20;99.90
54788;DHT22;59598;48.112;16.280;2022-09-09T15:57:17;19.10;99.90
54788;DHT22;59598;48.112;16.280;2022-09-09T15:59:49;19.10;99.90
54788;DHT22;59598;48.112;16.280;2022-09-09T16:02:21;18.90;99.90
54788;DHT22;59598;48.112;16.280;2022-09-09T16:04:52;18.90;99.90
54788;DHT22;59598;48.112;16.280;2022-09-09T16:07:27;18.80;99.90
54788;DHT22;59598;48.112;16.280;2022-09-09T16:09:58;18.90;99.90
54788;DHT22;59598;48.112;16.280;2022-09-09T16:12:30;18.80;99.90
54788;DHT22;59598;48.112;16.280;2022-09-09T16:15:04;18.80;99.90
54788;DHT22;59598;48.112;16.280;2022-09-09T16:17:36;18.80;99.90
54788;DHT22;59598;48.112;16.280;2022-09-09T16:20:09;18.70;99.90
54788;DHT22;59598;48.112;16.280;2022-09-09T16:22:48;18.60;99.90
54788;DHT22;59598;48.112;16.280;2022-09-09T16:25:19;18.60;99.90
54788;DHT22;59598;48.112;16.280;2022-09-09T16:27:51;18.60;99.90
54788;DHT22;59598;48.112;16.280;2022-09-09T16:30:24;18.50;99.90
54788;DHT22;59598;48.112;16.280;2022-09-09T16:32:58;18.60;99.90
54788;DHT22;59598;48.112;16.280;2022-09-09T16:35:36;18.60;99.90
54788;DHT22;59598;48.112;16.280;2022-09-09T16:38:12;18.60;99.90
54788;DHT22;59598;48.112;16.280;2022-09-09T16:40:43;18.70;99.90
54788;DHT22;59598;48.112;16.280;2022-09-09T16:43:15;18.60;99.90
54788;DHT22;59598;48.112;16.280;2022-09-09T16:45:47;18.60;99.90
54788;DHT22;59598;48.112;16.280;2022-09-09T16:48:18;18.50;99.90
54788;DHT22;59598;48.112;16.280;2022-09-09T16:50:50;18.60;99.90
54788;DHT22;59598;48.112;16.280;2022-09-09T16:53:22;18.50;99.90
54788;DHT22;59598;48.112;16.280;2022-09-09T16:55:53;18.40;99.90
54788;DHT22;59598;48.112;16.280;2022-09-09T16:58:25;18.30;99.90
54788;DHT22;59598;48.112;16.280;2022-09-09T17:01:00;18.30;99.90
54788;DHT22;59598;48.112;16.280;2022-09-09T17:03:33;18.10;99.90
54788;DHT22;59598;48.112;16.280;2022-09-09T17:06:11;18.00;99.90
54788;DHT22;59598;48.112;16.280;2022-09-09T17:08:46;17.90;99.90
54788;DHT22;59598;48.112;16.280;2022-09-09T17:11:20;17.70;99.90
54788;DHT22;59598;48.112;16.280;2022-09-09T17:13:55;17.70;99.90
54788;DHT22;59598;48.112;16.280;2022-09-09T17:16:33;17.50;99.90
54788;DHT22;59598;48.112;16.280;2022-09-09T17:19:10;17.40;99.90
54788;DHT22;59598;48.112;16.280;2022-09-09T17:21:47;17.20;99.90
54788;DHT22;59598;48.112;16.280;2022-09-09T17:24:18;16.90;99.90
54788;DHT22;59598;48.112;16.280;2022-09-09T17:26:50;16.70;99.90
54788;DHT22;59598;48.112;16.280;2022-09-09T17:29:27;16.40;99.90
54788;DHT22;59598;48.112;16.280;2022-09-09T17:32:08;16.30;99.90
54788;DHT22;59598;48.112;16.280;2022-09-09T17:34:43;16.10;99.90
54788;DHT22;59598;48.112;16.280;2022-09-09T17:37:21;16.00;99.90
54788;DHT22;59598;48.112;16.280;2022-09-09T17:39:52;15.90;99.90
54788;DHT22;59598;48.112;16.280;2022-09-09T17:42:27;15.80;99.90
54788;DHT22;59598;48.112;16.280;2022-09-09T17:44:59;15.80;99.90
54788;DHT22;59598;48.112;16.280;2022-09-09T17:47:30;15.70;99.90
54788;DHT22;59598;48.112;16.280;2022-09-09T17:50:02;15.70;99.90
54788;DHT22;59598;48.112;16.280;2022-09-09T17:52:34;15.70;99.90
54788;DHT22;59598;48.112;16.280;2022-09-09T17:55:07;15.70;99.90
54788;DHT22;59598;48.112;16.280;2022-09-09T17:57:40;15.60;99.90
54788;DHT22;59598;48.112;16.280;2022-09-09T18:00:11;15.60;99.90
54788;DHT22;59598;48.112;16.280;2022-09-09T18:02:43;15.60;99.90
54788;DHT22;59598;48.112;16.280;2022-09-09T18:05:15;15.50;99.90
54788;DHT22;59598;48.112;16.280;2022-09-09T18:07:46;15.50;99.90
54788;DHT22;59598;48.112;16.280;2022-09-09T18:10:21;15.50;99.90
54788;DHT22;59598;48.112;16.280;2022-09-09T18:12:57;15.50;99.90
54788;DHT22;59598;48.112;16.280;2022-09-09T18:15:38;15.50;99.90
54788;DHT22;59598;48.112;16.280;2022-09-09T18:18:12;15.40;99.90